GTRO2: Cimmarron R.,Guthrie, OK

Data processed at Wed May 22 2019 23:50


All information presented herein is the property of the government of the United States of America and may be revised or deleted at any time without prior notice.
Dissemination of this information without the expressed written consent of the Public Affairs Office, Tulsa District U.S. Army Corps of Engineers is strictly prohibited.
These data are gathered electronically and, as presented, have not undergone any form of quality control. These data are not guaranteed to be valid or correct.
Go to home page.
Go to station list.
Go to home page.

Upstream stations:

Downstream station:
Previous Day
Next Day
Current Day
    
SHEF ID:       GTRO2     Cimarron River near Guthrie, OK
STATION TYPE:  
Regulating: Stage =    18.00, Flow =    32554

               PRECIP     STAGE  RIV-FLOW  BAT-LOAD
                   in        ft       cfs      volt
              Ccp-Rev   Ccp-Rev   Ccp-Rev   Ccp-Rev
(US/Central)
05/22 00:00      ----     21.46     57637     12.73
05/22 01:00      ----     21.47     57721     12.65
05/22 02:00      ----     21.47     57721     12.65
05/22 03:00      ----     21.44     57467     12.65
05/22 04:00      ----     21.31     56373     12.65
05/22 05:00      ----     21.13     54878     12.57
05/22 06:00      ----     21.03     54058     12.57
05/22 07:00      ----     21.00     53814     12.57
05/22 08:00      ----     20.95     53408     12.65
05/22 09:00      ----     21.02     53977     12.81
05/22 10:00      ----     20.96     53489     12.97
05/22 11:00      ----      ----      ----      ----
05/22 12:00      ----     20.97     53570      ----
05/22 13:00      ----     20.91     53084     12.81
05/22 14:00      ----     20.86     52682     12.97
05/22 15:00      ----     20.84     52521     12.97
05/22 16:00      ----     20.84     52521     12.97
05/22 17:00      ----     20.85     52601     12.89
05/22 18:00      ----     20.87     52762     12.81
05/22 19:00      ----     20.89     52923     12.81
05/22 20:00      ----     20.88     52843     12.73
05/22 21:00      ----     20.86     52682     12.73
05/22 22:00      ----     20.78     52041     12.73
05/22 23:00      ----     20.71     51484     12.65